createdAt,value
2019-03-28T00:00:46.374Z,77.91
2019-03-28T00:02:52.021Z,78.19
2019-03-28T00:04:57.674Z,78.26
2019-03-28T00:07:03.421Z,78.83
2019-03-28T00:09:09.659Z,78.87
2019-03-28T00:11:15.332Z,79.05
2019-03-28T00:13:21.004Z,79.33
2019-03-28T00:15:26.582Z,79.68
2019-03-28T00:17:32.249Z,80.04
2019-03-28T00:19:37.943Z,80.36
2019-03-28T00:21:43.660Z,80.39
2019-03-28T00:23:53.869Z,80.70
2019-03-28T00:25:59.656Z,80.55
2019-03-28T00:28:05.302Z,80.75
2019-03-28T00:30:11.076Z,81.16
2019-03-28T00:32:16.748Z,81.33
2019-03-28T00:34:22.400Z,81.34
2019-03-28T00:36:28.047Z,81.26
2019-03-28T00:38:33.722Z,81.19
2019-03-28T00:40:39.368Z,81.16
2019-03-28T00:42:45.019Z,80.99
2019-03-28T00:44:50.689Z,80.92
2019-03-28T00:46:56.335Z,80.73
2019-03-28T00:49:01.984Z,80.68
2019-03-28T00:51:07.689Z,80.73
2019-03-28T00:53:13.314Z,80.66
2019-03-28T00:55:18.962Z,80.65
2019-03-28T00:57:24.635Z,80.52
2019-03-28T00:59:30.280Z,80.45
2019-03-28T01:01:36.007Z,80.44
2019-03-28T01:03:41.686Z,80.47
2019-03-28T01:05:47.326Z,80.54
2019-03-28T01:07:52.967Z,80.39
2019-03-28T01:09:59.763Z,80.21
2019-03-28T01:12:05.571Z,80.18
2019-03-28T01:14:11.223Z,80.18
2019-03-28T01:16:16.906Z,80.19
2019-03-28T01:18:22.554Z,80.07
2019-03-28T01:20:28.130Z,80.13
2019-03-28T01:22:33.801Z,80.00
2019-03-28T01:24:39.382Z,80.01
2019-03-28T01:26:56.639Z,79.83
2019-03-28T01:28:52.273Z,79.75
2019-03-28T01:30:57.926Z,79.71
2019-03-28T01:33:03.497Z,79.67
2019-03-28T01:35:09.104Z,79.71
2019-03-28T01:37:14.679Z,79.77
2019-03-28T01:39:20.187Z,79.64
2019-03-28T01:41:25.720Z,79.58
2019-03-28T01:43:31.228Z,79.62
2019-03-28T01:45:36.875Z,79.76
2019-03-28T01:47:43.170Z,79.64
2019-03-28T01:49:48.945Z,79.62
2019-03-28T01:51:54.587Z,79.67
2019-03-28T01:54:00.261Z,79.59
2019-03-28T01:56:05.903Z,79.48
2019-03-28T01:58:11.550Z,79.55
2019-03-28T02:00:17.519Z,79.82
2019-03-28T02:02:23.163Z,80.04
2019-03-28T02:04:28.669Z,79.89
2019-03-28T02:06:34.305Z,79.86
2019-03-28T02:08:40.087Z,79.72
2019-03-28T02:10:45.732Z,79.78
2019-03-28T02:12:51.503Z,79.72
2019-03-28T02:14:57.149Z,79.79
2019-03-28T02:17:02.793Z,79.90
2019-03-28T02:19:08.465Z,79.78
2019-03-28T02:21:14.126Z,79.73
2019-03-28T02:23:19.751Z,79.74
2019-03-28T02:25:25.491Z,79.81
2019-03-28T02:27:31.138Z,79.76
2019-03-28T02:29:36.785Z,79.81
2019-03-28T02:31:43.080Z,79.93
2019-03-28T02:33:49.201Z,79.94
2019-03-28T02:35:54.840Z,80.06
2019-03-28T02:38:00.509Z,80.07
2019-03-28T02:40:07.565Z,80.14
2019-03-28T02:42:14.004Z,80.10
2019-03-28T02:44:19.742Z,80.03
2019-03-28T02:46:25.387Z,79.95
2019-03-28T02:48:31.033Z,80.02
2019-03-28T02:50:37.709Z,80.09
2019-03-28T02:52:43.802Z,80.06
2019-03-28T02:54:49.544Z,80.07
2019-03-28T02:56:55.204Z,80.27
2019-03-28T02:59:00.784Z,80.35
2019-03-28T03:01:06.430Z,80.17
2019-03-28T03:03:13.216Z,80.20
2019-03-28T03:05:18.908Z,80.29
2019-03-28T03:07:24.639Z,80.29
2019-03-28T03:09:30.318Z,80.25
2019-03-28T03:11:36.048Z,80.11
2019-03-28T03:13:41.725Z,80.16
2019-03-28T03:15:48.482Z,80.11
2019-03-28T03:17:54.329Z,80.28
2019-03-28T03:19:59.973Z,80.34
2019-03-28T03:22:05.646Z,80.36
2019-03-28T03:24:11.293Z,80.24
2019-03-28T03:26:16.963Z,80.17
2019-03-28T03:28:22.637Z,80.13
2019-03-28T03:30:28.420Z,80.26
2019-03-28T03:32:34.115Z,80.34
2019-03-28T03:34:39.791Z,80.36
2019-03-28T03:36:45.659Z,80.45
2019-03-28T03:38:51.315Z,80.44
2019-03-28T03:40:56.983Z,80.50
2019-03-28T03:43:02.634Z,80.50
2019-03-28T03:45:10.164Z,80.50
2019-03-28T03:47:15.929Z,80.63
2019-03-28T03:49:21.575Z,80.50
2019-03-28T03:51:27.231Z,80.53
2019-03-28T03:53:32.923Z,80.54
2019-03-28T03:55:38.565Z,80.38
2019-03-28T03:57:44.208Z,80.43
2019-03-28T03:59:50.092Z,80.43
2019-03-28T04:01:55.786Z,80.34
2019-03-28T04:04:02.524Z,80.37
2019-03-28T04:06:08.202Z,80.37
2019-03-28T04:08:13.863Z,80.39
2019-03-28T04:10:19.543Z,80.42
2019-03-28T04:12:25.268Z,80.51
2019-03-28T04:14:30.914Z,80.54
2019-03-28T04:16:36.559Z,80.45
2019-03-28T04:18:42.240Z,80.49
2019-03-28T04:20:48.014Z,80.38
2019-03-28T04:22:53.655Z,80.48
2019-03-28T04:24:59.331Z,80.64
2019-03-28T04:27:05.064Z,80.54
2019-03-28T04:29:10.692Z,80.63
2019-03-28T04:31:16.367Z,80.75
2019-03-28T04:33:21.949Z,80.74
2019-03-28T04:35:27.592Z,80.62
2019-03-28T04:37:33.272Z,80.74
2019-03-28T04:39:38.918Z,80.70
2019-03-28T04:41:44.604Z,80.80
2019-03-28T04:43:50.928Z,80.67
2019-03-28T04:45:57.163Z,80.58
2019-03-28T04:48:02.812Z,80.36
2019-03-28T04:50:09.086Z,80.34
2019-03-28T04:52:14.738Z,80.32
2019-03-28T04:54:20.393Z,80.30
2019-03-28T04:56:26.086Z,80.28
2019-03-28T04:58:43.804Z,80.20
2019-03-28T05:00:39.092Z,80.07
2019-03-28T05:02:46.246Z,80.10
2019-03-28T05:04:51.995Z,80.02
2019-03-28T05:06:57.639Z,79.92
2019-03-28T05:09:04.515Z,79.77
2019-03-28T05:11:10.562Z,79.90
2019-03-28T05:13:16.208Z,79.85
2019-03-28T05:15:21.891Z,79.76
2019-03-28T05:17:27.534Z,79.66
2019-03-28T05:19:33.177Z,79.88
2019-03-28T05:21:38.853Z,79.96
2019-03-28T05:23:44.554Z,80.00
2019-03-28T05:25:50.285Z,79.70
2019-03-28T05:27:56.129Z,79.60
2019-03-28T05:30:01.782Z,79.78
2019-03-28T05:32:07.618Z,80.08
2019-03-28T05:34:13.300Z,80.02
2019-03-28T05:36:18.953Z,79.69
2019-03-28T05:38:24.642Z,79.72
2019-03-28T05:40:30.321Z,79.31
2019-03-28T05:42:35.975Z,79.21
2019-03-28T05:44:41.619Z,79.11
2019-03-28T05:46:47.295Z,78.95
2019-03-28T05:48:52.873Z,78.84
2019-03-28T05:50:58.516Z,78.80
2019-03-28T05:53:04.309Z,78.75
2019-03-28T05:55:09.958Z,78.80
2019-03-28T05:57:15.605Z,78.65
2019-03-28T05:59:22.392Z,78.61
2019-03-28T06:01:28.123Z,78.70
2019-03-28T06:03:33.762Z,78.73
2019-03-28T06:05:39.436Z,78.76
2019-03-28T06:07:45.017Z,78.61
2019-03-28T06:09:50.662Z,78.60
2019-03-28T06:11:56.339Z,78.44
2019-03-28T06:14:01.988Z,78.58
2019-03-28T06:16:07.710Z,78.20
2019-03-28T06:18:13.393Z,78.06
2019-03-28T06:20:19.043Z,77.73
2019-03-28T06:22:24.695Z,77.53
2019-03-28T06:24:31.247Z,77.73
2019-03-28T06:26:37.184Z,77.74
2019-03-28T06:28:42.975Z,77.90
2019-03-28T06:30:48.649Z,77.62
2019-03-28T06:32:54.316Z,77.28
2019-03-28T06:34:59.964Z,77.21
2019-03-28T06:37:06.425Z,77.12
2019-03-28T06:39:12.261Z,76.83
2019-03-28T06:41:17.980Z,76.84
2019-03-28T06:43:23.660Z,76.69
2019-03-28T06:45:29.304Z,76.50
2019-03-28T06:47:35.061Z,76.11
2019-03-28T06:49:40.731Z,75.86
2019-03-28T06:51:46.461Z,75.52
2019-03-28T06:53:52.121Z,75.62
2019-03-28T06:55:57.926Z,75.70
2019-03-28T06:58:03.755Z,75.49
2019-03-28T07:00:10.706Z,74.89
2019-03-28T07:02:17.326Z,74.39
2019-03-28T07:04:23.075Z,74.07
2019-03-28T07:06:28.719Z,74.36
2019-03-28T07:08:34.419Z,73.99
2019-03-28T07:10:40.507Z,73.88
2019-03-28T07:12:46.221Z,72.88
2019-03-28T07:14:51.912Z,72.44
2019-03-28T07:16:58.661Z,72.27
2019-03-28T07:19:04.305Z,71.30
2019-03-28T07:21:09.974Z,70.50
2019-03-28T07:23:15.697Z,69.00
2019-03-28T07:25:21.349Z,68.93
2019-03-28T07:27:27.020Z,68.03
2019-03-28T07:29:32.980Z,67.31
2019-03-28T07:31:38.627Z,65.52
2019-03-28T07:33:44.309Z,63.52
2019-03-28T07:35:49.970Z,61.88
2019-03-28T07:37:55.621Z,61.25
2019-03-28T07:40:01.293Z,61.73
2019-03-28T07:42:06.950Z,61.40
2019-03-28T07:44:12.626Z,61.93
2019-03-28T07:46:18.486Z,60.89
2019-03-28T07:48:24.235Z,60.41
2019-03-28T07:50:29.978Z,60.49
2019-03-28T07:52:37.272Z,60.41
2019-03-28T07:54:43.999Z,60.47
2019-03-28T07:56:49.719Z,59.52
2019-03-28T07:58:55.397Z,57.64
2019-03-28T08:01:01.124Z,56.46
2019-03-28T08:03:07.154Z,54.84
2019-03-28T08:05:13.729Z,54.42
2019-03-28T08:07:19.387Z,53.66
2019-03-28T08:09:36.074Z,54.34
2019-03-28T08:11:32.455Z,54.94
2019-03-28T08:13:38.441Z,55.05
2019-03-28T08:15:44.123Z,56.52
2019-03-28T08:17:49.811Z,57.41
2019-03-28T08:19:55.459Z,58.55
2019-03-28T08:22:01.124Z,59.47
2019-03-28T08:24:07.908Z,58.53
2019-03-28T08:26:13.563Z,58.46
2019-03-28T08:28:20.405Z,58.90
2019-03-28T08:30:36.689Z,57.80
2019-03-28T08:32:43.224Z,57.95
2019-03-28T08:34:48.878Z,57.80
2019-03-28T08:36:54.866Z,54.94
2019-03-28T08:39:00.950Z,54.08
2019-03-28T08:41:08.169Z,55.46
2019-03-28T08:43:14.776Z,56.69
2019-03-28T08:45:20.677Z,55.98
2019-03-28T08:47:26.330Z,55.76
2019-03-28T08:49:32.006Z,56.19
2019-03-28T08:51:37.681Z,57.48
2019-03-28T08:53:43.401Z,58.75
2019-03-28T08:55:49.477Z,58.92
2019-03-28T08:57:55.161Z,59.00
2019-03-28T09:00:00.828Z,59.21
2019-03-28T09:02:06.496Z,58.27
2019-03-28T09:04:12.159Z,57.08
2019-03-28T09:06:17.805Z,58.37
2019-03-28T09:08:23.490Z,59.18
2019-03-28T09:10:29.128Z,59.72
2019-03-28T09:12:35.425Z,59.82
2019-03-28T09:14:41.432Z,59.24
2019-03-28T09:16:48.077Z,57.99
2019-03-28T09:18:53.734Z,57.08
2019-03-28T09:20:59.430Z,55.87
2019-03-28T09:23:05.088Z,54.61
2019-03-28T09:25:12.388Z,55.07
2019-03-28T09:27:18.398Z,55.06
2019-03-28T09:29:24.048Z,53.68
2019-03-28T09:31:29.700Z,53.19
2019-03-28T09:33:35.590Z,52.00
2019-03-28T09:35:42.625Z,51.15
2019-03-28T09:37:48.504Z,50.16
2019-03-28T09:39:54.218Z,50.99
2019-03-28T09:41:59.784Z,51.36
2019-03-28T09:44:05.640Z,51.77
2019-03-28T09:46:11.331Z,51.06
2019-03-28T09:48:16.988Z,51.48
2019-03-28T09:50:22.641Z,51.81
2019-03-28T09:52:28.323Z,51.66
2019-03-28T09:54:33.968Z,51.21
2019-03-28T09:56:39.625Z,50.73
2019-03-28T09:58:45.375Z,51.09
2019-03-28T10:01:02.027Z,51.42
2019-03-28T10:02:59.982Z,51.45
2019-03-28T10:05:07.411Z,51.30
2019-03-28T10:07:13.195Z,51.89
2019-03-28T10:09:18.788Z,52.63
2019-03-28T10:11:24.478Z,52.65
2019-03-28T10:13:31.133Z,52.81
2019-03-28T10:15:37.223Z,52.26
2019-03-28T10:17:43.154Z,52.61
2019-03-28T10:19:48.871Z,51.87
2019-03-28T10:21:54.521Z,52.69
2019-03-28T10:24:00.208Z,51.26
2019-03-28T10:26:06.565Z,51.87
2019-03-28T10:28:12.360Z,52.25
2019-03-28T10:30:19.819Z,51.98
2019-03-28T10:32:25.469Z,51.63
2019-03-28T10:34:31.327Z,52.03
2019-03-28T10:36:36.936Z,51.55
2019-03-28T10:38:42.592Z,52.01
2019-03-28T10:40:48.246Z,51.92
2019-03-28T10:42:53.940Z,52.16
2019-03-28T10:44:59.599Z,51.95
2019-03-28T10:47:05.322Z,50.88
2019-03-28T10:49:11.506Z,50.95
2019-03-28T10:51:17.144Z,50.24
2019-03-28T10:53:22.798Z,49.37
2019-03-28T10:55:28.503Z,49.84
2019-03-28T10:57:34.153Z,49.64
2019-03-28T10:59:39.805Z,49.38
2019-03-28T11:01:50.185Z,49.61
2019-03-28T11:03:52.854Z,49.32
2019-03-28T11:05:58.679Z,47.93
2019-03-28T11:08:04.358Z,48.59
2019-03-28T11:10:10.021Z,49.85
2019-03-28T11:12:15.671Z,50.66
2019-03-28T11:14:22.355Z,50.03
2019-03-28T11:16:28.041Z,50.31
2019-03-28T11:18:33.694Z,48.59
2019-03-28T11:20:40.082Z,49.10
2019-03-28T11:22:46.122Z,48.83
2019-03-28T11:24:51.793Z,48.17
2019-03-28T11:26:57.752Z,46.63
2019-03-28T11:29:03.723Z,47.03
2019-03-28T11:31:09.378Z,47.26
2019-03-28T11:33:15.052Z,48.31
2019-03-28T11:35:20.726Z,50.69
2019-03-28T11:37:27.486Z,50.74
2019-03-28T11:39:33.935Z,51.28
2019-03-28T11:41:39.587Z,51.09
2019-03-28T11:43:45.598Z,50.03
2019-03-28T11:45:51.338Z,48.52
2019-03-28T11:47:56.997Z,47.29
2019-03-28T11:50:02.944Z,46.47
2019-03-28T11:52:08.730Z,46.31
2019-03-28T11:54:14.382Z,46.70
2019-03-28T11:56:20.119Z,46.66
2019-03-28T11:58:25.810Z,47.76
2019-03-28T12:00:31.531Z,48.41
2019-03-28T12:02:37.326Z,49.12
2019-03-28T12:04:43.005Z,49.15
2019-03-28T12:06:49.021Z,48.87
2019-03-28T12:08:56.027Z,47.86
2019-03-28T12:11:01.981Z,47.54
2019-03-28T12:13:07.670Z,46.16
2019-03-28T12:15:14.117Z,45.64
2019-03-28T12:17:19.795Z,45.94
2019-03-28T12:19:25.449Z,46.44
2019-03-28T12:21:31.109Z,46.94
2019-03-28T12:23:36.800Z,46.77
2019-03-28T12:25:43.449Z,46.91
2019-03-28T12:27:49.119Z,46.34
2019-03-28T12:29:54.790Z,45.62
2019-03-28T12:32:14.408Z,46.22
2019-03-28T12:34:07.797Z,46.31
2019-03-28T12:36:13.549Z,46.06
2019-03-28T12:38:19.402Z,44.89
2019-03-28T12:40:25.156Z,43.49
2019-03-28T12:42:30.846Z,44.53
2019-03-28T12:44:36.581Z,44.28
2019-03-28T12:46:42.244Z,44.99
2019-03-28T12:48:47.912Z,45.02
2019-03-28T12:50:59.051Z,44.81
2019-03-28T12:53:00.921Z,44.48
2019-03-28T12:55:08.483Z,45.28
2019-03-28T12:57:14.606Z,46.72
2019-03-28T12:59:20.368Z,45.74
2019-03-28T13:01:26.047Z,46.15
2019-03-28T13:03:44.750Z,45.84
2019-03-28T13:05:39.287Z,44.82
2019-03-28T13:07:44.966Z,44.47
2019-03-28T13:09:50.634Z,44.51
2019-03-28T13:11:57.350Z,44.42
2019-03-28T13:14:03.114Z,43.71
2019-03-28T13:16:08.822Z,43.09
2019-03-28T13:18:14.488Z,42.65
2019-03-28T13:20:22.179Z,43.32
2019-03-28T13:22:28.544Z,44.69
2019-03-28T13:24:35.281Z,44.37
2019-03-28T13:26:40.967Z,43.80
2019-03-28T13:28:46.615Z,44.16
2019-03-28T13:30:52.265Z,42.93
2019-03-28T13:32:57.950Z,42.76
2019-03-28T13:35:04.903Z,42.47
2019-03-28T13:37:10.554Z,42.62
2019-03-28T13:39:16.248Z,44.75
2019-03-28T13:41:21.892Z,42.74
2019-03-28T13:43:27.550Z,41.95
2019-03-28T13:45:33.230Z,41.75
2019-03-28T13:47:38.885Z,42.13
2019-03-28T13:49:44.542Z,42.74
2019-03-28T13:51:50.221Z,42.68
2019-03-28T13:53:55.872Z,41.84
2019-03-28T13:56:01.605Z,42.27
2019-03-28T13:58:07.286Z,42.36
2019-03-28T14:00:14.613Z,42.29
2019-03-28T14:02:20.256Z,42.09
2019-03-28T14:04:25.940Z,42.14
2019-03-28T14:06:31.603Z,42.17
2019-03-28T14:08:37.263Z,41.83
2019-03-28T14:10:42.948Z,42.49
2019-03-28T14:12:48.602Z,41.49
2019-03-28T14:14:54.331Z,41.07
2019-03-28T14:17:00.031Z,42.08
2019-03-28T14:19:05.677Z,42.59
2019-03-28T14:21:11.532Z,42.81
2019-03-28T14:23:17.208Z,41.83
2019-03-28T14:25:22.867Z,41.54
2019-03-28T14:27:28.534Z,42.70
2019-03-28T14:29:34.220Z,42.48
2019-03-28T14:31:39.871Z,42.52
2019-03-28T14:33:45.529Z,41.90
2019-03-28T14:35:51.210Z,41.59
2019-03-28T14:37:56.994Z,41.75
2019-03-28T14:40:02.711Z,42.09
2019-03-28T14:42:08.387Z,41.75
2019-03-28T14:44:14.037Z,41.45
2019-03-28T14:46:19.693Z,41.67
2019-03-28T14:48:26.474Z,42.07
2019-03-28T14:50:35.036Z,42.43
2019-03-28T14:52:40.799Z,41.90
2019-03-28T14:54:46.470Z,42.15
2019-03-28T14:56:52.534Z,42.39
2019-03-28T14:58:58.615Z,42.37
2019-03-28T15:01:04.629Z,42.22
2019-03-28T15:03:24.514Z,41.91
2019-03-28T15:05:17.635Z,42.42
2019-03-28T15:07:23.316Z,42.50
2019-03-28T15:09:28.979Z,42.44
2019-03-28T15:11:34.631Z,42.50
2019-03-28T15:13:40.719Z,42.09
2019-03-28T15:15:46.363Z,41.86
2019-03-28T15:17:52.022Z,41.75
2019-03-28T15:19:57.828Z,42.04
2019-03-28T15:22:03.543Z,41.50
2019-03-28T15:24:09.199Z,41.52
2019-03-28T15:26:14.880Z,41.51
2019-03-28T15:28:20.649Z,41.15
2019-03-28T15:30:26.302Z,41.79
2019-03-28T15:32:32.078Z,41.99
2019-03-28T15:34:37.755Z,42.36
2019-03-28T15:36:43.485Z,42.79
2019-03-28T15:38:49.174Z,43.02
2019-03-28T15:40:54.826Z,43.61
2019-03-28T15:43:00.475Z,42.71
2019-03-28T15:45:07.762Z,41.81
2019-03-28T15:47:13.497Z,42.05
2019-03-28T15:49:19.179Z,42.78
2019-03-28T15:51:24.939Z,43.26
2019-03-28T15:53:30.604Z,43.15
2019-03-28T15:55:37.374Z,43.05
2019-03-28T15:57:43.051Z,43.12
2019-03-28T15:59:48.696Z,43.31
2019-03-28T16:01:54.364Z,43.54
2019-03-28T16:04:00.037Z,43.38
2019-03-28T16:06:05.840Z,43.81
2019-03-28T16:08:11.504Z,43.99
2019-03-28T16:10:18.126Z,44.31
2019-03-28T16:12:23.906Z,44.33
2019-03-28T16:14:29.734Z,44.68
2019-03-28T16:16:35.539Z,44.99
2019-03-28T16:18:41.259Z,44.74
2019-03-28T16:20:47.099Z,45.10
2019-03-28T16:22:52.871Z,45.23
2019-03-28T16:24:58.647Z,45.38
2019-03-28T16:27:04.512Z,45.82
2019-03-28T16:29:10.356Z,45.71
2019-03-28T16:31:16.144Z,46.31
2019-03-28T16:33:21.874Z,46.78
2019-03-28T16:35:27.565Z,46.75
2019-03-28T16:37:33.320Z,46.98
2019-03-28T16:39:39.082Z,47.16
2019-03-28T16:41:44.781Z,47.67
2019-03-28T16:43:50.537Z,47.88
2019-03-28T16:45:57.510Z,48.10
2019-03-28T16:48:03.324Z,48.16
2019-03-28T16:50:09.324Z,48.40
2019-03-28T16:52:15.056Z,48.59
2019-03-28T16:54:20.929Z,48.65
2019-03-28T16:56:27.907Z,49.07
2019-03-28T16:58:33.656Z,49.45
2019-03-28T17:00:39.687Z,49.56
2019-03-28T17:02:45.451Z,49.80
2019-03-28T17:04:51.099Z,50.34
2019-03-28T17:06:57.101Z,50.59
2019-03-28T17:09:04.554Z,50.91
2019-03-28T17:11:12.320Z,51.00
2019-03-28T17:13:18.793Z,51.43
2019-03-28T17:15:25.907Z,51.45
2019-03-28T17:17:33.290Z,51.60
2019-03-28T17:19:38.983Z,51.96
2019-03-28T17:21:44.702Z,52.25
2019-03-28T17:23:50.355Z,52.62
2019-03-28T17:25:56.102Z,52.68
2019-03-28T17:28:01.750Z,52.99
2019-03-28T17:30:07.898Z,53.19
2019-03-28T17:32:13.651Z,53.44
2019-03-28T17:34:19.301Z,53.96
2019-03-28T17:36:26.822Z,55.84
2019-03-28T17:38:32.402Z,55.41
2019-03-28T17:40:38.054Z,54.71
2019-03-28T17:42:43.708Z,54.72
2019-03-28T17:44:49.397Z,55.20
2019-03-28T17:46:55.049Z,55.89
2019-03-28T17:49:00.695Z,55.83
2019-03-28T17:51:06.363Z,55.68
2019-03-28T17:53:12.009Z,56.10
2019-03-28T17:55:19.831Z,55.74
2019-03-28T17:57:25.722Z,55.98
2019-03-28T17:59:31.362Z,56.31
2019-03-28T18:01:37.082Z,57.06
2019-03-28T18:03:42.845Z,57.85
2019-03-28T18:05:57.850Z,58.67
2019-03-28T18:07:55.890Z,58.79
2019-03-28T18:10:01.569Z,58.71
2019-03-28T18:13:05.662Z,59.53
2019-03-28T18:15:13.350Z,60.21
2019-03-28T18:17:20.091Z,60.34
2019-03-28T18:19:26.751Z,60.43
2019-03-28T18:21:33.446Z,60.43
2019-03-28T18:23:40.183Z,60.89
2019-03-28T18:25:46.847Z,60.70
2019-03-28T18:27:53.541Z,61.33
2019-03-28T18:30:00.265Z,61.09
2019-03-28T18:32:06.997Z,61.27
2019-03-28T18:34:13.761Z,61.27
2019-03-28T18:36:20.427Z,61.48
2019-03-28T18:38:27.131Z,61.96
2019-03-28T18:40:33.902Z,62.27
2019-03-28T18:42:42.451Z,62.88
2019-03-28T18:44:49.123Z,63.39
2019-03-28T18:46:55.820Z,63.18
2019-03-28T18:49:02.499Z,63.14
2019-03-28T18:51:09.182Z,63.80
2019-03-28T18:53:15.895Z,64.51
2019-03-28T18:55:22.589Z,64.97
2019-03-28T18:57:29.246Z,64.61
2019-03-28T18:59:35.932Z,64.86
2019-03-28T19:01:42.785Z,65.16
2019-03-28T19:03:49.448Z,65.35
2019-03-28T19:05:56.189Z,65.70
2019-03-28T19:08:02.851Z,65.82
2019-03-28T19:10:10.385Z,65.74
2019-03-28T19:12:17.157Z,65.49
2019-03-28T19:14:23.891Z,65.70
2019-03-28T19:16:30.559Z,65.75
2019-03-28T19:18:37.257Z,65.93
2019-03-28T19:20:43.922Z,66.39
2019-03-28T19:22:52.233Z,66.36
2019-03-28T19:24:58.998Z,66.28
2019-03-28T19:27:05.667Z,66.40
2019-03-28T19:29:12.413Z,66.28
2019-03-28T19:31:19.102Z,66.83
2019-03-28T19:33:25.769Z,67.02
2019-03-28T19:35:33.540Z,67.66
2019-03-28T19:37:42.421Z,67.83
2019-03-28T19:39:49.140Z,67.55
2019-03-28T19:41:55.996Z,68.42
2019-03-28T19:44:03.872Z,68.30
2019-03-28T19:46:10.532Z,68.77
2019-03-28T19:48:17.208Z,68.90
2019-03-28T19:50:30.454Z,69.57
2019-03-28T19:52:37.616Z,69.75
2019-03-28T19:54:44.388Z,69.65
2019-03-28T19:56:51.087Z,69.63
2019-03-28T19:58:59.217Z,69.82
2019-03-28T20:01:07.012Z,70.25
2019-03-28T20:03:13.724Z,70.38
2019-03-28T20:05:20.392Z,70.73
2019-03-28T20:07:27.132Z,70.83
2019-03-28T20:09:33.832Z,70.93
2019-03-28T20:11:40.569Z,71.23
2019-03-28T20:13:47.302Z,71.30
2019-03-28T20:15:55.809Z,71.46
2019-03-28T20:18:02.549Z,71.36
2019-03-28T20:20:10.420Z,71.60
2019-03-28T20:22:17.289Z,71.60
2019-03-28T20:24:23.965Z,71.80
2019-03-28T20:26:30.700Z,71.98
2019-03-28T20:28:39.075Z,72.50
2019-03-28T20:30:46.125Z,72.69
2019-03-28T20:32:53.795Z,72.83
2019-03-28T20:35:00.600Z,72.87
2019-03-28T20:37:07.338Z,73.78
2019-03-28T20:39:14.073Z,74.05
2019-03-28T20:41:20.772Z,74.05
2019-03-28T20:43:28.217Z,73.88
2019-03-28T20:45:34.947Z,73.76
2019-03-28T20:47:44.503Z,73.91
2019-03-28T20:49:52.712Z,73.68
2019-03-28T20:51:59.452Z,73.83
2019-03-28T20:54:10.155Z,73.83
2019-03-28T20:56:17.765Z,73.90
2019-03-28T20:58:24.711Z,74.00
2019-03-28T21:00:48.180Z,74.31
2019-03-28T21:02:54.914Z,74.37
2019-03-28T21:05:02.529Z,74.56
2019-03-28T21:07:09.424Z,74.91
2019-03-28T21:09:16.091Z,74.81
2019-03-28T21:11:22.760Z,74.99
2019-03-28T21:13:30.030Z,75.24
2019-03-28T21:15:36.876Z,75.39
2019-03-28T21:17:43.548Z,75.56
2019-03-28T21:19:50.314Z,75.50
2019-03-28T21:21:56.985Z,75.39
2019-03-28T21:24:04.092Z,75.29
2019-03-28T21:26:11.589Z,75.27
2019-03-28T21:28:18.321Z,75.42
2019-03-28T21:30:27.067Z,75.72
2019-03-28T21:32:33.396Z,75.65
2019-03-28T21:34:40.151Z,75.61
2019-03-28T21:36:48.401Z,75.63
2019-03-28T21:38:55.186Z,75.53
2019-03-28T21:41:01.861Z,75.60
2019-03-28T21:43:08.530Z,75.64
2019-03-28T21:45:15.609Z,76.12
2019-03-28T21:47:22.339Z,76.65
2019-03-28T21:49:29.002Z,76.62
2019-03-28T21:51:35.766Z,76.44
2019-03-28T21:53:42.527Z,76.60
2019-03-28T21:55:55.557Z,76.74
2019-03-28T21:57:57.693Z,76.75
2019-03-28T22:00:07.105Z,76.71
2019-03-28T22:02:13.883Z,76.80
2019-03-28T22:04:20.649Z,76.94
2019-03-28T22:06:27.373Z,76.97
2019-03-28T22:08:35.688Z,77.04
2019-03-28T22:10:43.077Z,77.07
2019-03-28T22:12:50.247Z,77.30
2019-03-28T22:14:56.987Z,77.54
2019-03-28T22:17:03.772Z,77.72
2019-03-28T22:19:10.442Z,77.71
2019-03-28T22:21:17.111Z,77.74
2019-03-28T22:23:23.808Z,77.86
2019-03-28T22:25:30.476Z,78.06
2019-03-28T22:27:37.223Z,78.31
2019-03-28T22:29:43.910Z,78.66
2019-03-28T22:31:50.572Z,78.81
2019-03-28T22:33:57.337Z,79.06
2019-03-28T22:36:04.054Z,79.15
2019-03-28T22:38:10.717Z,78.87
2019-03-28T22:40:17.392Z,78.73
2019-03-28T22:42:24.090Z,78.77
2019-03-28T22:44:33.766Z,78.96
2019-03-28T22:46:39.765Z,79.02
2019-03-28T22:48:46.794Z,79.05
2019-03-28T22:50:53.460Z,79.21
2019-03-28T22:53:00.060Z,79.25
2019-03-28T22:55:09.623Z,79.31
2019-03-28T22:57:16.388Z,79.35
2019-03-28T22:59:23.263Z,79.52
2019-03-28T23:01:30.071Z,79.60
2019-03-28T23:03:36.804Z,79.55
2019-03-28T23:05:43.482Z,79.64
2019-03-28T23:07:51.177Z,79.73
2019-03-28T23:09:57.847Z,79.90
2019-03-28T23:12:05.586Z,80.10
2019-03-28T23:14:12.283Z,80.16
2019-03-28T23:16:18.952Z,80.30
2019-03-28T23:18:25.639Z,80.65
2019-03-28T23:20:33.799Z,80.76
2019-03-28T23:22:40.868Z,80.72
2019-03-28T23:24:47.545Z,80.51
2019-03-28T23:26:54.249Z,80.47
2019-03-28T23:29:04.054Z,80.48
2019-03-28T23:31:10.717Z,80.46
2019-03-28T23:33:17.403Z,80.54
2019-03-28T23:35:24.112Z,80.68
2019-03-28T23:37:30.875Z,80.86
2019-03-28T23:39:37.847Z,80.97
2019-03-28T23:41:45.015Z,80.91
2019-03-28T23:43:51.688Z,80.76
2019-03-28T23:45:58.381Z,80.79
2019-03-28T23:48:05.158Z,81.11
2019-03-28T23:50:12.003Z,81.28
2019-03-28T23:52:18.697Z,81.10
2019-03-28T23:54:25.477Z,80.84
2019-03-28T23:56:33.017Z,80.58
2019-03-28T23:58:39.781Z,80.47
